createdAt,value
2018-02-09T00:01:10.517Z,60.22
2018-02-09T00:03:40.385Z,58.03
2018-02-09T00:06:10.056Z,62.05
2018-02-09T00:08:39.970Z,57.92
2018-02-09T00:11:09.800Z,51.15
2018-02-09T00:13:39.682Z,57.15
2018-02-09T00:16:09.738Z,64.30
2018-02-09T00:18:39.626Z,65.55
2018-02-09T00:23:45.968Z,59.83
2018-02-09T00:26:15.875Z,65.50
2018-02-09T00:28:45.761Z,57.17
2018-02-09T00:31:15.709Z,56.03
2018-02-09T00:33:45.627Z,56.90
2018-02-09T00:36:15.487Z,60.20
2018-02-09T00:38:47.016Z,58.78
2018-02-09T00:41:16.880Z,55.72
2018-02-09T00:43:47.210Z,58.15
2018-02-09T00:46:17.106Z,51.08
2018-02-09T00:48:49.977Z,62.30
2018-02-09T00:51:19.868Z,60.42
2018-02-09T00:53:50.022Z,62.50
2018-02-09T00:56:19.911Z,55.58
2018-02-09T00:58:49.846Z,55.10
2018-02-09T01:01:19.687Z,61.80
2018-02-09T01:03:49.784Z,54.03
2018-02-09T01:06:19.742Z,56.88
2018-02-09T01:08:49.711Z,57.17
2018-02-09T01:11:19.590Z,57.70
2018-02-09T01:13:49.275Z,59.47
2018-02-09T01:16:19.224Z,60.47
2018-02-09T01:18:49.092Z,59.55
2018-02-09T01:21:18.936Z,51.05
2018-02-09T01:23:49.147Z,59.92
2018-02-09T01:26:18.837Z,60.55
2018-02-09T01:28:48.689Z,66.87
2018-02-09T01:31:18.560Z,60.12
2018-02-09T01:33:48.486Z,60.55
2018-02-09T01:36:18.498Z,55.17
2018-02-09T01:38:48.371Z,62.70
2018-02-09T01:41:18.208Z,67.15
2018-02-09T01:43:48.090Z,56.08
2018-02-09T01:46:17.736Z,60.63
2018-02-09T01:48:47.967Z,65.43
2018-02-09T01:51:18.085Z,57.55
2018-02-09T01:53:47.969Z,59.53
2018-02-09T01:56:17.826Z,66.28
2018-02-09T01:58:47.726Z,60.12
2018-02-09T02:01:17.635Z,63.38
2018-02-09T02:03:47.483Z,64.22
2018-02-09T02:06:17.373Z,64.05
2018-02-09T02:08:47.224Z,53.60
2018-02-09T02:11:17.098Z,60.12
2018-02-09T02:13:46.943Z,54.47
2018-02-09T02:16:16.821Z,58.58
2018-02-09T02:18:46.728Z,58.60
2018-02-09T02:21:16.577Z,60.75
2018-02-09T02:23:46.462Z,57.45
2018-02-09T02:26:16.306Z,58.35
2018-02-09T02:28:46.139Z,57.55
2018-02-09T02:31:15.985Z,55.80
2018-02-09T02:33:45.615Z,55.63
2018-02-09T02:36:15.472Z,64.90
2018-02-09T02:38:45.333Z,53.65
2018-02-09T02:41:15.188Z,54.38
2018-02-09T02:43:45.692Z,52.62
2018-02-09T02:46:15.684Z,61.72
2018-02-09T02:48:46.620Z,58.80
2018-02-09T02:51:16.219Z,58.78
2018-02-09T02:53:46.073Z,49.08
2018-02-09T02:56:16.030Z,57.97
2018-02-09T02:58:45.996Z,63.38
2018-02-09T03:01:15.874Z,54.10
2018-02-09T03:03:45.795Z,54.47
2018-02-09T03:06:15.630Z,57.28
2018-02-09T03:08:45.558Z,62.20
2018-02-09T03:11:15.485Z,58.05
2018-02-09T03:13:46.027Z,59.15
2018-02-09T03:16:15.975Z,61.25
2018-02-09T03:18:46.788Z,59.47
2018-02-09T03:21:16.678Z,57.08
2018-02-09T03:23:46.498Z,63.25
2018-02-09T03:26:16.353Z,58.53
2018-02-09T03:28:46.240Z,69.12
2018-02-09T03:31:17.707Z,64.87
2018-02-09T03:33:47.598Z,59.17
2018-02-09T03:36:17.247Z,56.83
2018-02-09T03:38:47.130Z,61.78
2018-02-09T03:41:16.982Z,51.50
2018-02-09T03:43:46.858Z,62.58
2018-02-09T03:46:16.697Z,55.50
2018-02-09T03:48:46.549Z,66.37
2018-02-09T03:51:16.439Z,60.92
2018-02-09T03:53:46.308Z,60.83
2018-02-09T03:56:16.174Z,57.03
2018-02-09T03:58:46.003Z,60.45
2018-02-09T04:01:15.876Z,63.70
2018-02-09T04:03:45.821Z,58.78
2018-02-09T04:06:15.681Z,60.97
2018-02-09T04:08:45.540Z,71.60
2018-02-09T04:11:15.611Z,61.80
2018-02-09T04:13:45.473Z,59.28
2018-02-09T04:16:15.659Z,58.92
2018-02-09T04:18:45.492Z,62.13
2018-02-09T04:21:15.370Z,59.13
2018-02-09T04:23:45.262Z,67.35
2018-02-09T04:26:15.165Z,61.75
2018-02-09T04:28:45.133Z,60.10
2018-02-09T04:31:14.970Z,57.03
2018-02-09T04:33:44.816Z,60.55
2018-02-09T04:36:14.701Z,62.95
2018-02-09T04:38:44.544Z,75.55
2018-02-09T04:41:14.369Z,64.37
2018-02-09T04:43:44.212Z,60.85
2018-02-09T04:46:14.075Z,67.95
2018-02-09T04:48:43.921Z,62.08
2018-02-09T04:51:13.815Z,61.15
2018-02-09T04:53:43.681Z,61.95
2018-02-09T04:56:13.532Z,61.33
2018-02-09T04:58:43.424Z,55.78
2018-02-09T05:01:13.284Z,57.17
2018-02-09T05:03:43.098Z,62.13
2018-02-09T05:06:12.936Z,60.42
2018-02-09T05:08:42.861Z,64.43
2018-02-09T05:11:12.676Z,58.30
2018-02-09T05:13:42.540Z,58.45
2018-02-09T05:16:12.380Z,60.63
2018-02-09T05:18:42.309Z,66.07
2018-02-09T05:21:12.184Z,57.10
2018-02-09T05:23:42.097Z,57.35
2018-02-09T05:26:12.031Z,61.67
2018-02-09T05:28:41.860Z,67.75
2018-02-09T05:31:11.687Z,55.78
2018-02-09T05:33:41.593Z,60.90
2018-02-09T05:36:11.587Z,56.42
2018-02-09T05:38:41.501Z,67.75
2018-02-09T05:41:11.854Z,63.38
2018-02-09T05:43:41.679Z,62.88
2018-02-09T05:46:11.526Z,63.03
2018-02-09T05:48:41.483Z,65.95
2018-02-09T05:51:11.376Z,64.68
2018-02-09T05:53:42.845Z,67.97
2018-02-09T05:56:12.697Z,68.37
2018-02-09T05:58:42.595Z,60.47
2018-02-09T06:01:13.198Z,62.70
2018-02-09T06:03:42.905Z,68.15
2018-02-09T06:06:13.073Z,58.53
2018-02-09T06:08:42.970Z,58.60
2018-02-09T06:11:12.949Z,67.72
2018-02-09T06:13:42.854Z,63.30
2018-02-09T06:16:12.705Z,71.80
2018-02-09T06:18:42.470Z,71.10
2018-02-09T06:21:12.644Z,62.25
2018-02-09T06:23:43.708Z,71.97
2018-02-09T06:26:14.490Z,62.50
2018-02-09T06:28:44.369Z,62.80
2018-02-09T06:31:14.257Z,73.82
2018-02-09T06:33:44.114Z,66.75
2018-02-09T06:36:13.991Z,67.55
2018-02-09T06:38:43.843Z,62.40
2018-02-09T06:41:13.724Z,67.28
2018-02-09T06:43:43.568Z,61.83
2018-02-09T06:46:13.512Z,65.28
2018-02-09T06:48:45.043Z,61.90
2018-02-09T06:51:16.061Z,68.32
2018-02-09T06:53:45.990Z,70.87
2018-02-09T06:56:15.906Z,64.43
2018-02-09T06:58:45.826Z,59.95
2018-02-09T07:01:15.803Z,66.47
2018-02-09T07:03:45.741Z,64.57
2018-02-09T07:06:15.756Z,66.90
2018-02-09T07:08:45.812Z,59.08
2018-02-09T07:11:17.136Z,65.55
2018-02-09T07:13:54.420Z,65.20
2018-02-09T07:16:25.202Z,61.35
2018-02-09T07:18:55.126Z,64.70
2018-02-09T07:21:24.912Z,62.05
2018-02-09T07:23:54.727Z,65.03
2018-02-09T07:26:24.336Z,64.20
2018-02-09T07:28:54.314Z,68.87
2018-02-09T07:31:24.128Z,68.30
2018-02-09T07:33:53.971Z,61.85
2018-02-09T07:36:23.920Z,65.00
2018-02-09T07:38:58.253Z,64.90
2018-02-09T07:41:28.088Z,62.03
2018-02-09T07:43:57.942Z,69.40
2018-02-09T07:46:27.611Z,59.25
2018-02-09T07:48:57.480Z,69.78
2018-02-09T07:51:27.293Z,58.05
2018-02-09T07:53:57.128Z,59.95
2018-02-09T07:56:27.013Z,58.92
2018-02-09T07:58:56.930Z,69.85
2018-02-09T08:01:26.845Z,60.90
2018-02-09T08:03:56.772Z,61.53
2018-02-09T08:06:26.640Z,62.25
2018-02-09T08:08:56.428Z,61.92
2018-02-09T08:11:26.440Z,59.97
2018-02-09T08:13:56.242Z,60.97
2018-02-09T08:16:26.123Z,62.75
2018-02-09T08:18:56.065Z,59.38
2018-02-09T08:21:25.928Z,62.70
2018-02-09T08:23:55.892Z,66.87
2018-02-09T08:26:25.894Z,69.43
2018-02-09T08:28:55.718Z,68.37
2018-02-09T08:31:25.528Z,60.08
2018-02-09T08:33:55.518Z,70.57
2018-02-09T08:36:25.440Z,68.55
2018-02-09T08:38:55.251Z,59.47
2018-02-09T08:41:25.127Z,65.95
2018-02-09T08:43:59.324Z,56.22
2018-02-09T08:46:29.155Z,59.92
2018-02-09T08:49:00.020Z,53.67
2018-02-09T08:51:30.014Z,52.85
2018-02-09T08:53:59.916Z,57.80
2018-02-09T08:56:29.771Z,62.55
2018-02-09T08:58:59.633Z,57.97
2018-02-09T09:01:29.641Z,52.45
2018-02-09T09:03:59.518Z,51.85
2018-02-09T09:06:29.386Z,49.63
2018-02-09T09:09:02.940Z,56.72
2018-02-09T09:11:32.552Z,52.22
2018-02-09T09:14:02.564Z,53.63
2018-02-09T09:16:32.401Z,49.88
2018-02-09T09:19:02.754Z,49.17
2018-02-09T09:21:32.568Z,51.95
2018-02-09T09:24:02.409Z,47.28
2018-02-09T09:26:32.227Z,53.95
2018-02-09T09:29:06.069Z,55.10
2018-02-09T09:31:35.964Z,55.97
2018-02-09T09:34:06.132Z,51.55
2018-02-09T09:36:36.952Z,54.45
2018-02-09T09:39:06.850Z,54.20
2018-02-09T09:41:36.669Z,64.20
2018-02-09T09:44:06.597Z,64.90
2018-02-09T09:46:40.363Z,54.08
2018-02-09T09:49:10.208Z,61.13
2018-02-09T09:51:40.022Z,54.83
2018-02-09T09:54:10.047Z,57.67
2018-02-09T09:56:39.958Z,51.40
2018-02-09T09:59:09.994Z,58.00
2018-02-09T10:01:39.822Z,60.33
2018-02-09T10:04:09.865Z,57.58
2018-02-09T10:06:39.690Z,60.22
2018-02-09T10:09:09.970Z,68.10
2018-02-09T10:11:40.121Z,58.08
2018-02-09T10:14:10.436Z,59.83
2018-02-09T10:16:40.297Z,54.75
2018-02-09T10:19:10.189Z,61.22
2018-02-09T10:21:40.095Z,76.85
2018-02-09T10:24:10.192Z,75.25
2018-02-09T10:26:40.025Z,60.92
2018-02-09T10:29:09.834Z,68.22
2018-02-09T10:31:39.668Z,70.45
2018-02-09T10:34:09.666Z,71.22
2018-02-09T10:36:39.472Z,71.47
2018-02-09T10:39:09.361Z,64.72
2018-02-09T10:41:39.298Z,71.30
2018-02-09T10:44:09.446Z,77.65
2018-02-09T10:46:39.280Z,87.72
2018-02-09T10:49:09.147Z,78.87
2018-02-09T10:51:39.017Z,68.68
2018-02-09T10:54:09.185Z,95.90
2018-02-09T10:56:39.126Z,91.97
2018-02-09T10:59:09.188Z,85.62
2018-02-09T11:01:40.455Z,81.65
2018-02-09T11:04:11.705Z,71.00
2018-02-09T11:06:41.708Z,75.30
2018-02-09T11:09:11.459Z,70.80
2018-02-09T11:11:41.082Z,59.90
2018-02-09T11:14:10.988Z,69.40
2018-02-09T11:16:40.906Z,67.50
2018-02-09T11:19:10.721Z,71.75
2018-02-09T11:21:40.635Z,81.90
2018-02-09T11:24:10.634Z,73.35
2018-02-09T11:26:40.478Z,74.05
2018-02-09T11:29:10.337Z,74.95
2018-02-09T11:31:40.232Z,68.28
2018-02-09T11:34:10.090Z,73.97
2018-02-09T11:36:39.904Z,68.70
2018-02-09T11:39:10.086Z,76.15
2018-02-09T11:41:40.008Z,63.95
2018-02-09T11:44:09.953Z,68.50
2018-02-09T11:46:39.803Z,79.45
2018-02-09T11:49:09.665Z,78.20
2018-02-09T11:51:39.492Z,75.97
2018-02-09T11:54:09.505Z,63.50
2018-02-09T11:56:39.329Z,73.07
2018-02-09T11:59:09.382Z,68.22
2018-02-09T12:01:39.229Z,69.00
2018-02-09T12:04:09.348Z,71.95
2018-02-09T12:06:39.196Z,68.47
2018-02-09T12:09:09.406Z,57.25
2018-02-09T12:11:39.230Z,71.00
2018-02-09T12:14:09.273Z,65.55
2018-02-09T12:16:39.189Z,67.28
2018-02-09T12:19:09.228Z,77.30
2018-02-09T12:21:39.022Z,64.18
2018-02-09T12:24:09.664Z,68.87
2018-02-09T12:26:39.793Z,67.47
2018-02-09T12:29:09.373Z,70.18
2018-02-09T12:31:39.211Z,66.18
2018-02-09T12:34:09.403Z,66.72
2018-02-09T12:36:39.325Z,71.28
2018-02-09T12:39:09.205Z,68.35
2018-02-09T12:41:39.665Z,64.82
2018-02-09T12:44:09.754Z,74.10
2018-02-09T12:46:39.594Z,67.80
2018-02-09T12:49:10.582Z,69.20
2018-02-09T12:51:40.594Z,69.78
2018-02-09T12:54:10.784Z,69.12
2018-02-09T12:56:45.730Z,67.97
2018-02-09T12:59:15.705Z,63.40
2018-02-09T13:01:45.617Z,64.30
2018-02-09T13:04:15.505Z,58.45
2018-02-09T13:06:45.751Z,74.07
2018-02-09T13:09:15.712Z,73.20
2018-02-09T13:11:45.639Z,68.93
2018-02-09T13:14:26.439Z,65.43
2018-02-09T13:16:56.164Z,65.82
2018-02-09T13:19:25.801Z,61.40
2018-02-09T13:21:55.619Z,43.58
2018-02-09T13:24:26.530Z,51.75
2018-02-09T13:26:56.206Z,49.92
2018-02-09T13:29:26.262Z,35.65
2018-02-09T13:31:56.207Z,46.08
2018-02-09T13:34:25.959Z,38.92
2018-02-09T13:40:14.196Z,39.25
2018-02-09T13:42:45.010Z,41.03
2018-02-09T13:45:14.882Z,41.63
2018-02-09T13:47:48.617Z,33.67
2018-02-09T13:50:18.458Z,34.67
2018-02-09T13:52:48.358Z,37.88
2018-02-09T13:55:18.623Z,41.75
2018-02-09T13:57:48.479Z,36.83
2018-02-09T14:00:18.744Z,36.20
2018-02-09T14:02:48.655Z,43.85
2018-02-09T14:05:18.702Z,46.50
2018-02-09T14:07:48.768Z,40.53
2018-02-09T14:10:18.791Z,45.42
2018-02-09T14:12:48.669Z,40.10
2018-02-09T14:15:18.703Z,38.63
2018-02-09T14:17:49.444Z,36.13
2018-02-09T14:20:19.369Z,41.47
2018-02-09T14:22:49.511Z,45.42
2018-02-09T14:25:20.135Z,40.05
2018-02-09T14:27:50.190Z,34.20
2018-02-09T14:30:20.417Z,35.67
2018-02-09T14:32:51.039Z,29.83
2018-02-09T14:35:22.603Z,34.42
2018-02-09T14:37:53.384Z,27.35
2018-02-09T14:43:12.574Z,32.22
2018-02-09T14:45:43.172Z,32.03
2018-02-09T14:48:13.306Z,35.85
2018-02-09T14:50:43.206Z,29.77
2018-02-09T14:53:12.883Z,34.58
2018-02-09T14:55:42.925Z,36.58
2018-02-09T14:58:14.514Z,32.65
2018-02-09T15:03:21.727Z,37.40
2018-02-09T15:05:51.701Z,32.45
2018-02-09T15:08:28.986Z,36.40
2018-02-09T15:10:59.103Z,34.58
2018-02-09T15:13:29.173Z,27.15
2018-02-09T15:16:01.485Z,39.47
2018-02-09T15:21:06.644Z,31.62
2018-02-09T15:23:36.329Z,36.28
2018-02-09T15:26:06.472Z,30.45
2018-02-09T15:28:36.662Z,30.27
2018-02-09T15:31:06.564Z,35.17
2018-02-09T15:33:36.851Z,33.55
2018-02-09T15:36:06.815Z,32.53
2018-02-09T15:38:36.972Z,28.02
2018-02-09T15:41:10.285Z,37.60
2018-02-09T15:43:40.448Z,35.78
2018-02-09T15:51:23.110Z,36.15
2018-02-09T15:53:53.399Z,32.08
2018-02-09T15:58:59.281Z,41.88
2018-02-09T16:01:31.035Z,35.72
2018-02-09T16:04:01.294Z,40.05
2018-02-09T16:06:31.351Z,38.08
2018-02-09T16:09:01.679Z,35.80
2018-02-09T16:11:39.376Z,40.65
2018-02-09T16:14:11.325Z,44.38
2018-02-09T16:16:43.397Z,38.97
2018-02-09T16:19:15.558Z,45.42
2018-02-09T16:21:46.792Z,48.35
2018-02-09T16:26:50.629Z,39.75
2018-02-09T16:29:22.277Z,35.17
2018-02-09T16:31:54.036Z,37.60
2018-02-09T16:34:24.796Z,37.13
2018-02-09T16:39:32.655Z,40.05
2018-02-09T16:42:15.758Z,40.63
2018-02-09T16:44:47.374Z,35.83
2018-02-09T16:47:17.602Z,35.03
2018-02-09T16:49:47.589Z,40.72
2018-02-09T16:52:17.520Z,35.85
2018-02-09T16:54:47.237Z,38.97
2018-02-09T16:57:17.406Z,35.97
2018-02-09T16:59:49.972Z,33.83
2018-02-09T17:02:20.456Z,39.90
2018-02-09T17:04:50.699Z,39.28
2018-02-09T17:07:21.219Z,35.45
2018-02-09T17:09:51.944Z,35.22
2018-02-09T17:12:21.907Z,36.15
2018-02-09T17:14:51.895Z,42.28
2018-02-09T17:17:22.114Z,35.90
2018-02-09T17:19:52.217Z,42.62
2018-02-09T17:22:22.248Z,44.20
2018-02-09T17:24:52.438Z,39.88
2018-02-09T17:27:22.405Z,41.25
2018-02-09T17:29:56.456Z,34.25
2018-02-09T17:32:26.460Z,40.97
2018-02-09T17:34:56.681Z,31.50
2018-02-09T17:37:27.036Z,39.95
2018-02-09T17:39:58.469Z,37.53
2018-02-09T17:42:31.067Z,39.53
2018-02-09T17:45:01.247Z,38.15
2018-02-09T17:47:31.052Z,40.22
2018-02-09T17:50:04.741Z,39.35
2018-02-09T17:52:34.790Z,39.63
2018-02-09T17:55:05.246Z,41.10
2018-02-09T17:57:35.478Z,40.78
2018-02-09T18:00:05.409Z,53.25
2018-02-09T18:02:39.936Z,47.88
2018-02-09T18:05:09.858Z,42.62
2018-02-09T18:07:39.800Z,43.28
2018-02-09T18:10:09.752Z,40.65
2018-02-09T18:12:39.803Z,45.38
2018-02-09T18:15:09.701Z,44.67
2018-02-09T18:17:39.624Z,44.35
2018-02-09T18:20:10.308Z,40.35
2018-02-09T18:22:41.537Z,50.80
2018-02-09T18:25:11.527Z,48.08
2018-02-09T18:27:41.461Z,41.47
2018-02-09T18:30:11.627Z,51.00
2018-02-09T18:32:41.698Z,45.25
2018-02-09T18:35:11.851Z,48.87
2018-02-09T18:37:43.659Z,48.60
2018-02-09T18:40:13.834Z,43.33
2018-02-09T18:42:43.879Z,48.42
2018-02-09T18:45:15.406Z,43.03
2018-02-09T18:47:45.413Z,43.78
2018-02-09T18:50:15.643Z,47.03
2018-02-09T18:52:45.594Z,54.13
2018-02-09T18:57:51.427Z,51.45
2018-02-09T19:03:04.320Z,53.15
2018-02-09T19:05:34.583Z,47.35
2018-02-09T19:08:08.485Z,53.63
2018-02-09T19:10:39.351Z,53.00
2018-02-09T19:13:10.304Z,50.10
2018-02-09T19:15:44.592Z,54.80
2018-02-09T19:18:14.812Z,53.65
2018-02-09T19:23:38.420Z,54.00
2018-02-09T19:26:08.437Z,46.90
2018-02-09T19:28:38.795Z,50.72
2018-02-09T19:31:12.602Z,55.80
2018-02-09T19:33:42.505Z,48.25
2018-02-09T19:36:12.778Z,58.80
2018-02-09T19:38:42.816Z,55.15
2018-02-09T19:41:13.196Z,53.72
2018-02-09T19:43:43.044Z,56.50
2018-02-09T19:46:14.309Z,57.00
2018-02-09T19:48:45.286Z,58.63
2018-02-09T19:51:15.614Z,52.20
2018-02-09T19:53:45.895Z,56.50
2018-02-09T19:56:16.346Z,47.22
2018-02-09T19:58:46.383Z,61.65
2018-02-09T20:01:16.894Z,63.53
2018-02-09T20:03:47.497Z,56.70
2018-02-09T20:06:17.919Z,56.53
2018-02-09T20:08:47.908Z,58.10
2018-02-09T20:11:17.909Z,54.22
2018-02-09T20:13:47.788Z,51.25
2018-02-09T20:16:17.670Z,55.65
2018-02-09T20:18:47.453Z,57.28
2018-02-09T20:21:17.529Z,52.35
2018-02-09T20:23:47.532Z,50.45
2018-02-09T20:26:17.412Z,56.25
2018-02-09T20:28:47.691Z,58.60
2018-02-09T20:31:18.470Z,56.47
2018-02-09T20:33:49.094Z,56.63
2018-02-09T20:38:53.609Z,60.17
2018-02-09T20:41:23.534Z,51.42
2018-02-09T20:43:54.443Z,62.05
2018-02-09T20:46:24.285Z,59.25
2018-02-09T20:48:54.610Z,46.88
2018-02-09T20:51:24.478Z,53.83
2018-02-09T20:53:58.463Z,60.20
2018-02-09T20:59:16.640Z,61.83
2018-02-09T21:01:53.287Z,49.75
2018-02-09T21:04:25.561Z,58.17
2018-02-09T21:07:00.231Z,54.00
2018-02-09T21:09:34.468Z,50.47
2018-02-09T21:12:10.221Z,59.35
2018-02-09T21:14:44.092Z,53.33
2018-02-09T21:17:18.138Z,52.70
2018-02-09T21:20:00.448Z,51.37
2018-02-09T21:22:32.435Z,56.35
2018-02-09T21:25:14.271Z,58.75
2018-02-09T21:27:49.529Z,58.10
2018-02-09T21:30:19.496Z,57.67
2018-02-09T21:32:59.320Z,53.85
2018-02-09T21:35:31.168Z,59.47
2018-02-09T21:38:05.729Z,54.20
2018-02-09T21:40:47.681Z,66.65
2018-02-09T21:43:24.260Z,56.55
2018-02-09T21:45:57.440Z,59.30
2018-02-09T21:48:27.434Z,56.25
2018-02-09T21:50:58.328Z,53.95
2018-02-09T21:53:30.934Z,51.75
2018-02-09T21:56:08.349Z,55.50
2018-02-09T21:58:39.282Z,60.78
2018-02-09T22:01:09.142Z,54.05
2018-02-09T22:03:40.071Z,61.30
2018-02-09T22:06:10.148Z,61.05
2018-02-09T22:08:40.082Z,58.78
2018-02-09T22:11:10.067Z,66.40
2018-02-09T22:13:39.906Z,59.88
2018-02-09T22:16:10.978Z,54.60
2018-02-09T22:18:40.926Z,61.35
2018-02-09T22:21:10.752Z,55.25
2018-02-09T22:23:40.581Z,60.28
2018-02-09T22:26:10.839Z,54.70
2018-02-09T22:28:40.689Z,59.28
2018-02-09T22:31:10.549Z,62.75
2018-02-09T22:33:40.396Z,58.67
2018-02-09T22:36:10.345Z,58.78
2018-02-09T22:38:40.676Z,54.72
2018-02-09T22:41:10.518Z,55.92
2018-02-09T22:43:40.403Z,61.05
2018-02-09T22:46:09.927Z,55.95
2018-02-09T22:48:39.782Z,57.95
2018-02-09T22:51:09.661Z,57.55
2018-02-09T22:53:40.478Z,57.10
2018-02-09T22:56:10.377Z,61.20
2018-02-09T22:58:40.223Z,66.70
2018-02-09T23:01:10.231Z,59.15
2018-02-09T23:03:40.285Z,59.45
2018-02-09T23:06:10.149Z,58.92
2018-02-09T23:08:40.070Z,61.40
2018-02-09T23:11:09.914Z,69.57
2018-02-09T23:13:39.855Z,69.22
2018-02-09T23:16:09.417Z,66.85
2018-02-09T23:18:39.266Z,65.70
2018-02-09T23:21:09.102Z,67.22
2018-02-09T23:23:38.992Z,55.83
2018-02-09T23:26:08.874Z,68.18
2018-02-09T23:28:38.729Z,58.97
2018-02-09T23:31:08.576Z,61.92
2018-02-09T23:33:38.425Z,67.78
2018-02-09T23:36:08.444Z,65.43
2018-02-09T23:38:38.261Z,61.95
2018-02-09T23:41:08.102Z,61.08
2018-02-09T23:43:37.949Z,68.15
2018-02-09T23:46:07.776Z,60.63
2018-02-09T23:48:37.618Z,69.18
2018-02-09T23:51:07.219Z,66.00
2018-02-09T23:53:37.133Z,71.90
2018-02-09T23:56:06.998Z,75.72
2018-02-09T23:58:36.950Z,66.35
